Time;durP1;ratioP1;P1;durP2;ratioP2;P2;SDS_P1;SDS_P2;PMS_P1;PMS_P2;Temp;Humidity;BMP_temperature;BMP_pressure;BME280_temperature;BME280_humidity;BME280_pressure;Samples;Min_cycle;Max_cycle;Signal;HPM_P1;HPM_P2
2022/08/03 00:01:50;;;;;;;4.90;2.63;;;;;;;20.34;50.57;93993.72;5126143;28;20220;-76
2022/08/03 00:04:16;;;;;;;2.78;1.52;;;;;;;20.31;50.24;93989.81;5126381;28;20024;-76
2022/08/03 00:06:41;;;;;;;2.72;1.50;;;;;;;20.30;49.73;93987.50;5126290;28;20086;-76
2022/08/03 00:09:07;;;;;;;5.68;1.42;;;;;;;20.24;50.57;93990.53;5126049;27;20038;-76
2022/08/03 00:11:33;;;;;;;4.05;1.67;;;;;;;20.24;49.76;93995.94;5125019;28;20221;-76
2022/08/03 00:14:00;;;;;;;2.53;0.82;;;;;;;20.25;50.05;93991.31;5126214;28;20301;-75
2022/08/03 00:16:25;;;;;;;2.10;0.85;;;;;;;20.24;50.28;93990.53;5126343;28;20094;-75
2022/08/03 00:18:51;;;;;;;1.58;0.70;;;;;;;20.17;49.53;93992.38;5125873;28;20322;-76
2022/08/03 00:21:16;;;;;;;4.35;1.17;;;;;;;20.11;50.35;93983.84;5125895;28;20183;-76
2022/08/03 00:23:42;;;;;;;2.17;1.10;;;;;;;20.11;51.11;93980.34;5125698;28;20068;-76
2022/08/03 00:26:07;;;;;;;1.60;0.90;;;;;;;20.07;51.36;93980.31;5125998;28;20019;-76
2022/08/03 00:28:33;;;;;;;1.92;0.63;;;;;;;20.02;50.47;93980.63;5125849;28;20023;-76
2022/08/03 00:30:58;;;;;;;2.10;0.80;;;;;;;19.97;51.33;93980.97;5125836;28;20023;-75
2022/08/03 00:33:24;;;;;;;3.47;0.90;;;;;;;19.93;51.59;93990.97;5125674;28;20232;-76
2022/08/03 00:35:50;;;;;;;5.38;1.50;;;;;;;19.91;52.13;93991.34;5125482;28;20058;-76
2022/08/03 00:38:16;;;;;;;2.38;1.10;;;;;;;19.83;52.35;93978.88;5125624;28;20043;-76
2022/08/03 00:40:41;;;;;;;2.47;0.82;;;;;;;19.81;51.63;93987.34;5125728;27;20031;-76
2022/08/03 00:43:07;;;;;;;2.28;0.90;;;;;;;19.79;51.79;93980.75;5125670;27;20314;-76
2022/08/03 00:45:36;;;;;;;2.83;1.13;;;;;;;19.78;50.63;93979.19;5125351;28;20023;-75
2022/08/03 00:48:03;;;;;;;2.90;1.00;;;;;;;19.77;50.78;93980.34;5125464;28;20250;-76
2022/08/03 00:50:30;;;;;;;3.05;1.00;;;;;;;19.78;50.61;93981.91;5125444;28;20038;-75
2022/08/03 00:52:58;;;;;;;4.60;1.30;;;;;;;19.80;50.38;93982.31;5125191;28;20024;-76
2022/08/03 00:55:24;;;;;;;1.73;0.77;;;;;;;19.81;51.27;93984.66;5125257;28;20072;-76
2022/08/03 00:57:50;;;;;;;1.75;1.10;;;;;;;19.78;51.44;93977.28;5124896;28;20244;-76
2022/08/03 01:00:18;;;;;;;0.95;0.70;;;;;;;19.77;51.67;93975.72;5125140;28;20347;-76
2022/08/03 01:02:44;;;;;;;3.95;1.73;;;;;;;19.75;51.80;93979.94;5124998;28;20028;-75
2022/08/03 01:05:10;;;;;;;5.30;1.95;;;;;;;19.72;52.46;93976.06;5124926;28;20035;-75
2022/08/03 01:08:13;;;;;;;3.75;1.73;;;;;;;19.70;52.81;93972.91;5124810;28;20107;-74
2022/08/03 01:10:44;;;;;;;3.45;2.00;;;;;;;19.63;52.96;93972.81;5124986;28;20038;-75
2022/08/03 01:13:22;;;;;;;6.30;1.33;;;;;;;19.64;52.86;93963.53;5124700;28;20031;-76
2022/08/03 01:15:53;;;;;;;2.00;1.33;;;;;;;19.61;52.97;93965.06;5124570;28;20031;-76
2022/08/03 01:18:40;;;;;;;2.33;1.00;;;;;;;19.58;53.72;93956.91;5124613;28;20066;-75
2022/08/03 01:21:17;;;;;;;2.88;1.30;;;;;;;19.54;53.45;93961.47;5124838;28;20203;-75
2022/08/03 01:24:02;;;;;;;7.25;1.33;;;;;;;19.52;53.13;93977.28;5124669;28;20078;-75
2022/08/03 01:26:43;;;;;;;2.90;1.25;;;;;;;19.47;53.56;93962.19;5124802;28;20090;-76
2022/08/03 01:29:27;;;;;;;2.60;1.30;;;;;;;19.42;53.26;93963.28;5124455;28;20322;-76
2022/08/03 01:32:00;;;;;;;2.40;1.25;;;;;;;19.38;52.45;93962.47;5124456;28;20034;-75
2022/08/03 01:34:30;;;;;;;4.20;1.65;;;;;;;19.38;52.62;93959.75;5124459;28;20125;-75
2022/08/03 01:36:58;;;;;;;4.57;1.42;;;;;;;19.36;53.07;93970.16;5124268;28;20051;-75
2022/08/03 01:39:27;;;;;;;2.03;1.30;;;;;;;19.36;53.07;93966.69;5124387;28;20015;-75
2022/08/03 01:41:58;;;;;;;2.45;1.52;;;;;;;19.34;53.31;93969.75;5124014;28;20502;-75
2022/08/03 01:44:28;;;;;;;3.10;1.60;;;;;;;19.31;53.56;93973.16;5124368;28;20047;-76
2022/08/03 01:46:57;;;;;;;3.38;1.67;;;;;;;19.25;54.25;93969.22;5124044;27;20338;-75
2022/08/03 01:49:24;;;;;;;2.97;1.60;;;;;;;19.27;54.67;93966.16;5124023;28;20073;-75
2022/08/03 01:51:51;;;;;;;3.17;1.45;;;;;;;19.20;54.59;93973.03;5124287;27;20019;-76
2022/08/03 01:54:18;;;;;;;5.53;2.13;;;;;;;19.14;55.11;93979.88;5124032;28;20065;-76
2022/08/03 01:56:46;;;;;;;3.88;1.63;;;;;;;19.12;55.68;93976.00;5124210;28;20251;-76
2022/08/03 01:59:15;;;;;;;2.60;1.67;;;;;;;19.11;55.60;93969.81;5123994;28;20102;-76
2022/08/03 02:01:43;;;;;;;6.72;1.60;;;;;;;19.09;55.69;93971.31;5123905;28;20023;-76
2022/08/03 02:04:11;;;;;;;4.53;2.40;;;;;;;19.06;56.08;93972.06;5123888;28;20094;-76
2022/08/03 02:06:37;;;;;;;5.68;1.85;;;;;;;19.02;56.75;93980.88;5123937;28;20035;-76
2022/08/03 02:09:04;;;;;;;4.20;1.80;;;;;;;18.97;57.12;93970.38;5123852;28;20116;-76
2022/08/03 02:11:32;;;;;;;3.95;2.00;;;;;;;18.94;57.54;93970.31;5123979;28;20026;-76
2022/08/03 02:14:01;;;;;;;4.85;2.60;;;;;;;18.88;57.86;93977.19;5123804;28;20094;-76
2022/08/03 02:16:29;;;;;;;5.80;2.78;;;;;;;18.86;57.65;93974.84;5123745;28;20027;-77
2022/08/03 02:18:57;;;;;;;25.77;13.90;;;;;;;18.83;57.79;93975.56;5122878;28;20084;-76
2022/08/03 02:21:22;;;;;;;36.60;21.83;;;;;;;18.82;57.88;93977.47;5122871;28;20087;-75
2022/08/03 02:23:48;;;;;;;32.55;17.38;;;;;;;18.79;58.03;93974.75;5122967;28;20064;-75
2022/08/03 02:26:17;;;;;;;18.13;10.38;;;;;;;18.75;58.46;93968.47;5122710;28;20222;-75
2022/08/03 02:28:46;;;;;;;14.63;8.95;;;;;;;18.71;58.53;93962.25;5122638;28;20046;-75
2022/08/03 02:31:20;;;;;;;13.38;7.82;;;;;;;18.67;58.34;93962.19;5122865;28;20033;-76
2022/08/03 02:33:51;;;;;;;11.73;6.18;;;;;;;18.63;58.51;93967.50;5122815;28;20271;-75
2022/08/03 02:36:22;;;;;;;10.30;4.95;;;;;;;18.62;58.59;93965.16;5122580;28;20024;-75
2022/08/03 02:38:51;;;;;;;7.63;4.27;;;;;;;18.60;58.45;93968.25;5122516;28;20039;-75
2022/08/03 02:41:22;;;;;;;7.32;3.88;;;;;;;18.59;58.86;93968.59;5122513;28;20322;-75
2022/08/03 02:43:50;;;;;;;5.72;2.55;;;;;;;18.56;58.64;93967.41;5122538;28;20073;-76
2022/08/03 02:46:18;;;;;;;4.57;2.53;;;;;;;18.53;58.59;93954.63;5122531;28;20027;-76
2022/08/03 02:48:46;;;;;;;4.03;2.25;;;;;;;18.51;58.63;93965.00;5122339;28;20072;-76
2022/08/03 02:51:12;;;;;;;8.82;3.33;;;;;;;18.46;59.90;93957.22;5122561;28;20033;-77
2022/08/03 02:53:39;;;;;;;12.43;2.58;;;;;;;18.44;60.06;93965.66;5121096;28;20333;-76
2022/08/03 02:56:07;;;;;;;5.70;2.97;;;;;;;18.45;59.81;93964.50;5122474;28;20015;-76
2022/08/03 02:58:33;;;;;;;8.40;2.85;;;;;;;18.44;59.79;93964.91;5122532;28;20020;-76
2022/08/03 03:01:00;;;;;;;3.35;1.95;;;;;;;18.41;60.05;93963.69;5122539;28;20306;-76
2022/08/03 03:03:26;;;;;;;3.40;2.00;;;;;;;18.38;59.87;93960.94;5122222;28;20387;-76
2022/08/03 03:05:52;;;;;;;6.10;1.70;;;;;;;18.35;59.70;93967.03;5122287;28;20070;-76
2022/08/03 03:08:20;;;;;;;3.85;1.80;;;;;;;18.28;60.05;93972.31;5122152;28;20259;-76
2022/08/03 03:10:46;;;;;;;3.33;1.88;;;;;;;18.22;59.95;93977.22;5122146;28;20032;-76
2022/08/03 03:13:14;;;;;;;5.57;1.55;;;;;;;18.18;60.41;93977.16;5122335;28;20030;-76
2022/08/03 03:15:42;;;;;;;2.42;1.50;;;;;;;18.13;60.58;93988.22;5122254;28;20240;-76
2022/08/03 03:18:08;;;;;;;2.65;1.35;;;;;;;18.09;60.96;93995.47;5073890;28;1370632;-76
2022/08/03 03:20:37;;;;;;;4.90;1.85;;;;;;;18.03;61.09;93994.22;5123053;28;20037;-76
2022/08/03 03:23:04;;;;;;;7.25;1.95;;;;;;;18.02;61.13;94000.75;5122968;28;20016;-75
2022/08/03 03:25:31;;;;;;;4.60;2.00;;;;;;;18.00;61.23;94003.81;5122905;28;20023;-76
2022/08/03 03:27:58;;;;;;;9.18;2.53;;;;;;;17.97;61.33;94007.22;5122781;28;20046;-75
2022/08/03 03:30:25;;;;;;;12.75;4.00;;;;;;;17.96;62.09;94008.34;5122865;28;20031;-76
2022/08/03 03:32:50;;;;;;;16.98;6.65;;;;;;;17.92;61.45;93996.72;5122754;28;20024;-76
2022/08/03 03:35:16;;;;;;;11.63;6.38;;;;;;;17.88;62.05;94006.66;5122802;28;20386;-76
2022/08/03 03:37:41;;;;;;;18.20;9.95;;;;;;;17.90;62.18;94015.16;5122916;28;20039;-75
2022/08/03 03:40:08;;;;;;;24.00;10.55;;;;;;;17.89;62.40;94013.63;5122683;28;20065;-76
2022/08/03 03:42:33;;;;;;;18.55;7.45;;;;;;;17.88;62.59;94008.56;5122878;28;20019;-76
2022/08/03 03:45:05;;;;;;;12.07;6.43;;;;;;;17.89;62.63;94005.53;5122638;28;20027;-77
2022/08/03 03:47:33;;;;;;;11.95;5.18;;;;;;;17.93;62.77;94010.97;5122706;28;20032;-76
2022/08/03 03:49:59;;;;;;;11.90;4.40;;;;;;;17.96;62.63;94007.56;5122501;28;20020;-76
2022/08/03 03:52:24;;;;;;;8.88;4.30;;;;;;;17.97;63.16;94011.81;5122670;28;20053;-76
2022/08/03 03:54:50;;;;;;;9.95;4.60;;;;;;;17.98;63.05;94013.38;5122685;28;20352;-76
2022/08/03 03:57:15;;;;;;;13.95;6.03;;;;;;;17.97;63.21;94018.00;5122607;28;20061;-76
2022/08/03 03:59:41;;;;;;;25.00;9.18;;;;;;;17.99;62.83;94014.94;5122369;28;20027;-76
2022/08/03 04:02:08;;;;;;;19.67;9.13;;;;;;;18.05;62.31;94018.91;5122779;28;20333;-76
2022/08/03 04:12:58;;;;;;;6.13;2.70;;;;;;;18.30;60.86;94008.59;5126010;28;20045;-76
2022/08/03 04:15:26;;;;;;;5.40;2.47;;;;;;;18.35;60.06;94010.97;5126057;28;20145;-76
2022/08/03 04:17:56;;;;;;;2.75;1.65;;;;;;;18.41;59.47;94012.25;5125845;28;20055;-76
2022/08/03 04:20:25;;;;;;;8.77;2.85;;;;;;;18.47;59.33;94009.28;5125884;28;20023;-76
2022/08/03 04:22:53;;;;;;;6.45;2.17;;;;;;;18.53;60.02;94014.00;5125520;28;20030;-76
2022/08/03 04:25:21;;;;;;;7.20;2.22;;;;;;;18.53;59.62;94010.53;5125757;28;20055;-76
2022/08/03 04:27:51;;;;;;;5.25;2.38;;;;;;;18.61;59.31;94018.38;5125820;28;20027;-76
2022/08/03 04:30:18;;;;;;;6.63;2.95;;;;;;;18.69;59.41;94018.50;5125729;28;20032;-76
2022/08/03 04:32:49;;;;;;;5.60;2.63;;;;;;;18.82;59.44;94009.88;5125610;27;20299;-76
2022/08/03 04:35:15;;;;;;;4.78;2.53;;;;;;;18.93;59.99;94017.38;5125752;28;20225;-76
2022/08/03 04:37:46;;;;;;;6.28;2.50;;;;;;;19.01;59.76;94011.72;5125636;28;20050;-76
2022/08/03 04:40:33;;;;;;;6.07;2.40;;;;;;;19.08;58.78;94015.69;5125711;28;20250;-76
2022/08/03 04:43:00;;;;;;;11.10;2.78;;;;;;;19.16;57.96;94020.81;5125472;28;20072;-76
2022/08/03 04:45:29;;;;;;;4.45;2.28;;;;;;;19.22;58.04;94021.31;5125416;28;20023;-76
2022/08/03 04:47:56;;;;;;;6.78;3.10;;;;;;;19.31;58.35;94021.81;5125450;27;20031;-76
2022/08/03 04:50:22;;;;;;;7.88;1.98;;;;;;;19.34;58.09;94031.91;5125341;27;20318;-76
2022/08/03 04:52:48;;;;;;;13.18;2.50;;;;;;;19.33;57.38;94026.84;5125553;28;20024;-76
2022/08/03 04:55:30;;;;;;;14.52;4.18;;;;;;;19.32;58.43;94026.09;5125434;28;20041;-77
2022/08/03 04:57:56;;;;;;;6.38;2.40;;;;;;;19.31;57.76;94032.63;5125244;28;20019;-74
2022/08/03 05:00:22;;;;;;;7.47;3.08;;;;;;;19.30;58.70;94028.38;5124952;28;20015;-77
2022/08/03 05:02:48;;;;;;;7.45;3.45;;;;;;;19.32;59.07;94036.91;5125037;27;20028;-75
2022/08/03 05:05:14;;;;;;;15.65;3.78;;;;;;;19.37;59.63;94031.16;5124837;28;20023;-76
2022/08/03 05:07:41;;;;;;;15.80;3.97;;;;;;;19.38;58.27;94040.06;5124689;28;20333;-75
2022/08/03 05:10:08;;;;;;;15.52;3.65;;;;;;;19.40;58.52;94049.38;5124979;28;20301;-76
2022/08/03 05:12:34;;;;;;;7.57;3.47;;;;;;;19.49;58.72;94054.50;5125154;27;20331;-75
2022/08/03 05:15:00;;;;;;;20.75;4.05;;;;;;;19.53;58.48;94054.56;5124842;28;20064;-76
2022/08/03 05:17:27;;;;;;;15.25;3.92;;;;;;;19.49;59.29;94048.31;5123557;28;20105;-76
2022/08/03 05:19:53;;;;;;;12.35;4.68;;;;;;;19.58;59.08;94051.53;5124675;28;20101;-76
2022/08/03 05:22:19;;;;;;;13.55;3.90;;;;;;;19.64;58.18;94055.47;5124874;28;20175;-76
2022/08/03 05:24:45;;;;;;;16.25;3.92;;;;;;;19.71;58.01;94058.31;5124821;28;20056;-77
2022/08/03 05:27:16;;;;;;;11.05;3.80;;;;;;;19.81;58.79;94057.66;5124602;28;20015;-75
2022/08/03 05:29:42;;;;;;;18.75;4.72;;;;;;;19.89;58.70;94065.91;5124405;28;20047;-75
2022/08/03 05:32:07;;;;;;;6.30;3.45;;;;;;;19.89;58.56;94061.25;5124533;28;20207;-76
2022/08/03 05:34:33;;;;;;;12.07;3.90;;;;;;;19.90;57.69;94065.50;5124311;28;20035;-77
2022/08/03 05:36:58;;;;;;;9.35;3.63;;;;;;;19.96;56.57;94064.03;5124467;28;20031;-76
2022/08/03 05:39:24;;;;;;;9.70;4.05;;;;;;;19.95;56.57;94069.84;5124232;28;20310;-76
2022/08/03 05:41:49;;;;;;;9.38;3.33;;;;;;;20.01;56.19;94065.66;5124396;28;20027;-76
2022/08/03 05:44:15;;;;;;;12.77;3.13;;;;;;;20.13;56.26;94067.31;5124220;28;20236;-76
2022/08/03 05:46:40;;;;;;;9.52;3.60;;;;;;;20.27;56.08;94072.13;5124136;28;20031;-76
2022/08/03 05:49:05;;;;;;;12.10;4.43;;;;;;;20.40;56.19;94073.44;5124258;28;20034;-76
2022/08/03 05:51:31;;;;;;;11.35;3.10;;;;;;;20.44;55.91;94071.56;5124293;28;20072;-76
2022/08/03 05:53:56;;;;;;;6.30;2.72;;;;;;;20.57;54.53;94077.50;5124237;28;20252;-76
2022/08/03 05:56:24;;;;;;;9.40;4.00;;;;;;;20.63;55.04;94076.03;5124054;27;20230;-76
2022/08/03 05:58:50;;;;;;;7.13;3.30;;;;;;;20.74;54.72;94073.44;5124022;28;20072;-76
2022/08/03 06:01:16;;;;;;;9.43;2.90;;;;;;;20.77;54.54;94081.59;5123984;28;20312;-76
2022/08/03 06:03:42;;;;;;;13.52;3.40;;;;;;;20.78;54.61;94077.75;5123966;28;20019;-76
2022/08/03 06:06:07;;;;;;;4.65;2.80;;;;;;;20.89;54.49;94085.19;5124179;28;20111;-76
2022/08/03 06:08:33;;;;;;;8.50;2.83;;;;;;;20.98;54.00;94078.28;5123777;28;20322;-76
2022/08/03 06:10:58;;;;;;;5.88;2.90;;;;;;;20.99;53.31;94093.41;5123557;28;20043;-76
2022/08/03 06:13:24;;;;;;;14.77;3.20;;;;;;;21.01;53.29;94084.91;5123914;28;20226;-76
2022/08/03 06:15:50;;;;;;;7.05;2.63;;;;;;;21.11;52.53;94086.16;5123808;28;20031;-76
2022/08/03 06:18:15;;;;;;;10.50;2.92;;;;;;;21.20;52.58;94081.19;5123755;28;20215;-76
2022/08/03 06:20:40;;;;;;;6.57;2.83;;;;;;;21.25;52.30;94086.28;5123831;28;20307;-76
2022/08/03 06:23:06;;;;;;;13.13;3.00;;;;;;;21.26;51.68;94085.13;5123567;28;20024;-76
2022/08/03 06:25:31;;;;;;;9.60;2.78;;;;;;;21.24;51.48;94079.28;5123742;28;20023;-76
2022/08/03 06:27:58;;;;;;;7.53;3.22;;;;;;;21.37;51.70;94086.00;5123375;28;20091;-76
2022/08/03 06:30:24;;;;;;;12.73;3.15;;;;;;;21.43;51.55;94086.44;5123440;28;20031;-75
2022/08/03 06:32:50;;;;;;;9.98;2.70;;;;;;;21.50;52.18;94093.84;5123461;28;20031;-75
2022/08/03 06:35:15;;;;;;;7.47;2.92;;;;;;;21.55;51.93;94090.78;5123470;28;20582;-75
2022/08/03 06:37:45;;;;;;;7.43;2.50;;;;;;;21.50;51.30;94086.50;5123678;28;20322;-75
2022/08/03 06:40:16;;;;;;;14.43;3.10;;;;;;;21.54;51.34;94081.88;5123304;28;20015;-75
2022/08/03 06:42:42;;;;;;;10.82;2.42;;;;;;;21.59;51.83;94083.44;5123281;28;20027;-76
2022/08/03 06:45:09;;;;;;;10.60;2.45;;;;;;;21.50;51.44;94091.13;5123540;28;20026;-76
2022/08/03 06:47:35;;;;;;;6.38;2.58;;;;;;;21.65;51.45;94079.22;5123368;28;20046;-75
2022/08/03 06:50:02;;;;;;;8.35;3.13;;;;;;;21.62;51.29;94080.75;5123223;28;20057;-76
2022/08/03 06:52:27;;;;;;;12.10;2.60;;;;;;;21.67;50.92;94079.63;5123366;28;20023;-75
2022/08/03 06:54:52;;;;;;;13.77;2.58;;;;;;;21.72;51.05;94082.00;5123113;28;20261;-75
2022/08/03 06:57:18;;;;;;;5.75;3.00;;;;;;;21.77;51.15;94078.91;5123215;28;20052;-75
2022/08/03 06:59:43;;;;;;;11.93;3.22;;;;;;;21.86;51.45;94083.22;5123213;28;20027;-75
2022/08/03 07:02:10;;;;;;;12.43;3.90;;;;;;;21.95;51.56;94076.28;5123294;28;20016;-75
2022/08/03 07:04:36;;;;;;;7.32;2.88;;;;;;;22.08;50.73;94082.16;5122901;28;20016;-75
2022/08/03 07:07:01;;;;;;;6.57;3.03;;;;;;;22.21;50.26;94075.25;5123132;28;20416;-75
2022/08/03 07:09:27;;;;;;;24.13;3.47;;;;;;;22.30;49.93;94074.91;5122757;28;20023;-75
2022/08/03 07:11:53;;;;;;;14.65;4.35;;;;;;;22.42;49.88;94073.81;5123126;28;20023;-76
2022/08/03 07:14:18;;;;;;;8.50;2.90;;;;;;;22.53;50.19;94082.78;5122982;28;20020;-75
2022/08/03 07:16:44;;;;;;;10.70;4.07;;;;;;;22.58;48.75;94070.75;5122673;28;20110;-75
2022/08/03 07:19:09;;;;;;;14.52;3.50;;;;;;;22.54;49.44;94072.69;5123121;28;20094;-75
2022/08/03 07:21:35;;;;;;;11.65;3.03;;;;;;;22.63;49.61;94084.75;5123162;28;20019;-75
2022/08/03 07:24:01;;;;;;;17.42;3.70;;;;;;;22.74;48.81;94087.47;5122870;28;20019;-75
2022/08/03 07:26:26;;;;;;;9.95;3.78;;;;;;;22.82;48.56;94082.84;5122829;28;20027;-75
2022/08/03 07:28:51;;;;;;;6.47;3.63;;;;;;;22.94;48.57;94085.19;5122943;28;20027;-75
2022/08/03 07:31:17;;;;;;;10.07;3.42;;;;;;;23.02;48.08;94091.44;5122898;28;20030;-75
2022/08/03 07:33:42;;;;;;;8.15;3.35;;;;;;;23.13;47.56;94086.00;5122832;28;20024;-75
2022/08/03 07:36:07;;;;;;;8.32;3.33;;;;;;;23.20;47.24;94083.28;5123082;28;20018;-76
2022/08/03 07:38:35;;;;;;;7.57;3.55;;;;;;;23.33;46.26;94089.13;5122863;28;20068;-76
2022/08/03 07:41:01;;;;;;;10.65;2.80;;;;;;;23.40;45.71;94092.59;5126184;28;20104;-76
2022/08/03 07:43:27;;;;;;;6.57;2.92;;;;;;;23.38;45.26;94084.03;5126987;28;20314;-75
2022/08/03 07:45:52;;;;;;;8.95;2.58;;;;;;;23.52;43.67;94087.94;5126773;28;20019;-76
2022/08/03 07:48:17;;;;;;;9.13;3.00;;;;;;;23.50;43.30;94082.13;5126693;28;20042;-75
2022/08/03 07:50:43;;;;;;;3.22;2.20;;;;;;;23.52;43.02;94085.22;5126589;28;20240;-76
2022/08/03 07:53:08;;;;;;;9.35;2.45;;;;;;;23.60;43.35;94087.53;5126503;28;20133;-75
2022/08/03 07:55:34;;;;;;;4.85;2.78;;;;;;;23.68;42.47;94090.25;5126436;28;20022;-75
2022/08/03 07:58:04;;;;;;;11.88;2.47;;;;;;;23.77;42.23;94094.16;5126512;28;20090;-76
2022/08/03 08:00:30;;;;;;;6.55;2.25;;;;;;;23.87;42.14;94094.53;5126275;27;20243;-76
2022/08/03 08:02:55;;;;;;;7.43;2.13;;;;;;;23.80;40.57;94096.09;5126598;28;20035;-76
2022/08/03 08:05:21;;;;;;;7.32;2.60;;;;;;;23.88;41.98;94096.09;5126240;28;20271;-76
2022/08/03 08:07:46;;;;;;;5.53;2.50;;;;;;;23.96;41.32;94100.34;5126259;28;20148;-76
2022/08/03 08:10:12;;;;;;;5.70;1.92;;;;;;;23.99;41.48;94091.38;5126180;28;20058;-76
2022/08/03 08:12:39;;;;;;;5.10;2.47;;;;;;;24.10;41.64;94094.88;5126272;28;20401;-76
2022/08/03 08:15:05;;;;;;;6.28;2.60;;;;;;;24.16;42.16;94101.47;5126399;28;20058;-76
2022/08/03 08:17:30;;;;;;;7.68;3.70;;;;;;;24.20;41.88;94091.31;5126095;28;20039;-76
2022/08/03 08:19:56;;;;;;;4.85;2.30;;;;;;;24.27;40.78;94101.41;5125933;28;20117;-75
2022/08/03 08:22:22;;;;;;;7.45;2.05;;;;;;;24.31;41.24;94091.28;5125944;28;20094;-76
2022/08/03 08:24:48;;;;;;;5.40;2.30;;;;;;;24.32;40.55;94102.94;5126045;28;20098;-76
2022/08/03 08:27:14;;;;;;;8.10;2.35;;;;;;;24.43;41.50;94095.53;5126215;27;20028;-76
2022/08/03 08:29:39;;;;;;;4.80;1.88;;;;;;;24.49;41.22;94087.72;5126098;28;20023;-76
2022/08/03 08:32:05;;;;;;;4.55;2.25;;;;;;;24.50;40.81;94100.19;5125825;27;20026;-76
2022/08/03 08:34:30;;;;;;;5.65;2.58;;;;;;;24.54;40.91;94098.22;5125797;28;20029;-76
2022/08/03 08:36:56;;;;;;;4.72;2.38;;;;;;;24.67;40.06;94095.81;5125765;28;20015;-76
2022/08/03 08:39:21;;;;;;;13.52;2.42;;;;;;;24.59;40.59;94095.88;5125721;28;20035;-76
2022/08/03 08:41:50;;;;;;;4.93;1.98;;;;;;;24.54;40.79;94088.09;5125622;28;20036;-76
2022/08/03 08:44:15;;;;;;;5.47;2.20;;;;;;;24.66;41.81;94091.53;5125582;28;20027;-76
2022/08/03 08:46:41;;;;;;;6.95;3.13;;;;;;;24.69;40.39;94093.47;5125891;28;20020;-76
2022/08/03 08:49:08;;;;;;;4.28;1.80;;;;;;;24.70;40.36;94084.13;5125329;28;20094;-76
2022/08/03 08:51:36;;;;;;;7.55;2.28;;;;;;;24.72;40.56;94082.56;5125483;28;20041;-76
2022/08/03 08:54:03;;;;;;;6.15;1.80;;;;;;;24.85;41.46;94079.38;5125245;27;20083;-76
2022/08/03 08:56:31;;;;;;;5.65;2.13;;;;;;;24.97;39.88;94082.41;5125470;28;20031;-76
2022/08/03 08:58:58;;;;;;;4.95;2.10;;;;;;;25.05;38.60;94082.34;5125472;28;20019;-76
2022/08/03 09:01:24;;;;;;;5.28;1.92;;;;;;;25.07;39.59;94074.56;5125358;27;20016;-76
2022/08/03 09:03:50;;;;;;;8.55;1.98;;;;;;;25.20;40.58;94073.69;5125187;28;20016;-76
2022/08/03 09:06:16;;;;;;;11.55;2.10;;;;;;;25.38;38.36;94080.94;5125187;28;20314;-76
2022/08/03 09:08:41;;;;;;;17.38;2.10;;;;;;;25.39;38.31;94080.56;5125347;28;20039;-76
2022/08/03 09:11:07;;;;;;;9.65;2.47;;;;;;;25.40;37.29;94082.13;5125012;28;20027;-75
2022/08/03 09:13:33;;;;;;;3.55;1.83;;;;;;;25.45;37.46;94077.41;5125089;28;20027;-76
2022/08/03 09:16:15;;;;;;;7.30;2.20;;;;;;;25.55;38.19;94082.00;5124804;28;20064;-75
2022/08/03 09:18:47;;;;;;;6.05;2.00;;;;;;;25.68;37.66;94080.31;5125074;27;20040;-76
2022/08/03 09:21:30;;;;;;;7.47;3.22;;;;;;;25.83;36.60;94076.25;5123971;28;20026;-76
2022/08/03 09:23:57;;;;;;;3.67;1.85;;;;;;;25.90;36.98;94078.16;5124901;28;20031;-76
2022/08/03 09:26:24;;;;;;;5.18;1.90;;;;;;;26.02;36.37;94076.88;5124772;28;20030;-75
2022/08/03 09:28:56;;;;;;;4.78;1.95;;;;;;;26.08;35.95;94080.72;5124694;28;20314;-76
2022/08/03 09:31:32;;;;;;;6.20;2.25;;;;;;;26.28;35.73;94080.13;5124523;28;20217;-76
2022/08/03 09:34:01;;;;;;;4.35;1.90;;;;;;;26.42;35.50;94074.47;5124635;28;20032;-76
2022/08/03 09:36:42;;;;;;;3.42;1.98;;;;;;;26.60;36.10;94080.53;5124342;28;20038;-76
2022/08/03 09:39:16;;;;;;;3.95;2.00;;;;;;;26.76;34.80;94068.19;5124397;28;20050;-76
2022/08/03 09:41:44;;;;;;;11.35;1.83;;;;;;;26.88;34.73;94072.34;5124702;28;20047;-76
2022/08/03 09:44:10;;;;;;;5.07;1.48;;;;;;;26.86;33.67;94078.22;5124530;28;20020;-76
2022/08/03 09:46:55;;;;;;;5.57;1.58;;;;;;;26.80;33.78;94079.84;5124148;27;20061;-76
2022/08/03 09:49:21;;;;;;;6.93;1.98;;;;;;;26.85;33.89;94082.16;5124368;28;20024;-76
2022/08/03 09:51:47;;;;;;;4.15;1.63;;;;;;;26.73;34.34;94074.50;5124555;28;20027;-76
2022/08/03 09:54:25;;;;;;;5.25;1.80;;;;;;;26.93;34.57;94067.19;5124270;28;20275;-76
2022/08/03 09:56:51;;;;;;;5.40;1.90;;;;;;;27.06;34.32;94064.63;5124215;28;20023;-76
2022/08/03 09:59:25;;;;;;;3.78;1.90;;;;;;;27.20;34.17;94064.41;5124411;28;20039;-76
2022/08/03 10:01:50;;;;;;;3.92;1.65;;;;;;;27.27;34.55;94074.50;5123723;28;20028;-76
2022/08/03 10:04:16;;;;;;;6.18;1.83;;;;;;;27.33;32.76;94061.91;5123988;28;20087;-76
2022/08/03 10:06:59;;;;;;;4.68;1.60;;;;;;;27.34;33.29;94063.47;5124149;28;20023;-76
2022/08/03 10:09:26;;;;;;;5.20;1.65;;;;;;;27.41;32.59;94060.59;5123933;28;20030;-76
2022/08/03 10:11:52;;;;;;;6.65;1.73;;;;;;;27.51;32.88;94056.13;5123717;28;20020;-76
2022/08/03 10:14:17;;;;;;;3.13;1.77;;;;;;;27.64;32.18;94053.59;5124108;28;20031;-76
2022/08/03 10:16:45;;;;;;;2.70;1.85;;;;;;;27.76;33.14;94052.97;5124001;28;20015;-76
2022/08/03 10:19:12;;;;;;;6.95;1.95;;;;;;;27.94;32.24;94049.16;5123763;28;20039;-76
2022/08/03 10:21:41;;;;;;;3.40;2.20;;;;;;;28.02;31.37;94048.59;5123584;28;20031;-76
2022/08/03 10:24:09;;;;;;;3.63;2.60;;;;;;;28.01;30.69;94038.06;5123779;28;20024;-76
2022/08/03 10:26:39;;;;;;;2.78;1.88;;;;;;;28.15;30.49;94048.75;5123731;28;20024;-76
2022/08/03 10:29:10;;;;;;;4.43;2.42;;;;;;;28.20;29.38;94045.50;5123556;28;20317;-76
2022/08/03 10:31:43;;;;;;;2.65;1.85;;;;;;;28.32;31.58;94043.34;5123717;28;20023;-76
2022/08/03 10:34:22;;;;;;;3.95;2.22;;;;;;;28.39;31.48;94043.19;5123498;28;20094;-76
2022/08/03 10:36:50;;;;;;;5.55;1.77;;;;;;;28.50;31.31;94038.28;5123500;28;20023;-76
2022/08/03 10:39:20;;;;;;;2.83;1.73;;;;;;;28.66;31.12;94054.00;5123817;28;20019;-76
2022/08/03 10:41:47;;;;;;;2.90;1.35;;;;;;;28.77;31.12;94040.06;5123657;28;20023;-76
2022/08/03 10:44:17;;;;;;;8.75;1.75;;;;;;;28.87;29.40;94032.78;5123516;28;20314;-76
2022/08/03 10:46:45;;;;;;;2.83;1.50;;;;;;;28.87;30.07;94033.56;5123483;28;20280;-76
2022/08/03 10:49:16;;;;;;;12.23;1.73;;;;;;;28.91;31.01;94031.50;5123562;28;20023;-76
2022/08/03 10:51:45;;;;;;;6.22;1.58;;;;;;;29.07;29.98;94025.25;5123417;28;20045;-77
2022/08/03 10:57:43;;;;;;;4.97;2.50;;;;;;;29.35;28.77;94031.28;5123244;28;20053;-76
2022/08/03 11:00:10;;;;;;;2.20;1.77;;;;;;;29.38;29.23;94030.44;5123366;28;20023;-76
2022/08/03 11:03:00;;;;;;;4.03;1.70;;;;;;;29.18;29.60;94038.75;5123430;28;20024;-76
2022/08/03 11:05:27;;;;;;;7.93;2.08;;;;;;;29.00;30.09;94037.19;5123185;28;20038;-76
2022/08/03 11:08:28;;;;;;;2.53;1.77;;;;;;;28.96;29.54;94035.69;5123442;28;20026;-76
2022/08/03 11:11:20;;;;;;;8.63;2.00;;;;;;;28.81;29.76;94029.78;5123051;28;20073;-76
2022/08/03 11:14:19;;;;;;;4.63;1.98;;;;;;;28.72;30.01;94024.88;5123308;28;20045;-76
2022/08/03 11:16:51;;;;;;;4.80;2.33;;;;;;;28.67;31.04;94033.59;5122411;28;20058;-76
2022/08/03 11:19:21;;;;;;;2.58;1.42;;;;;;;28.68;30.69;94017.91;5127609;28;20042;-76
2022/08/03 11:21:50;;;;;;;5.90;1.58;;;;;;;28.72;30.26;94024.09;5127417;28;20039;-76
2022/08/03 11:24:40;;;;;;;2.28;1.25;;;;;;;28.63;30.07;94015.69;5127399;28;20102;-76
2022/08/03 11:27:21;;;;;;;6.05;2.15;;;;;;;28.61;30.89;94014.13;5127138;28;20050;-76
2022/08/03 11:30:10;;;;;;;2.35;1.65;;;;;;;28.89;30.18;94013.94;5127261;28;20099;-76
2022/08/03 11:32:47;;;;;;;4.30;1.98;;;;;;;28.92;30.09;94007.59;5127138;27;20202;-76
2022/08/03 11:35:17;;;;;;;3.45;1.90;;;;;;;29.12;30.31;94013.78;5127037;27;20100;-76
2022/08/03 11:38:04;;;;;;;3.20;1.98;;;;;;;29.37;29.69;94010.44;5127167;27;20214;-76
2022/08/03 11:40:47;;;;;;;5.22;2.47;;;;;;;29.46;27.87;94003.56;5126821;28;20110;-77
2022/08/03 11:43:28;;;;;;;5.63;2.42;;;;;;;29.50;27.39;94001.50;5127027;27;20245;-76
2022/08/03 11:46:00;;;;;;;5.40;2.70;;;;;;;29.71;27.48;93998.22;5126712;28;20028;-76
2022/08/03 11:48:32;;;;;;;5.18;2.25;;;;;;;29.80;26.40;94003.88;5126828;28;20082;-76
2022/08/03 11:50:58;;;;;;;;;;;;;;;29.59;26.45;94001.66;5127049;28;20031;-76